Time,TemperatureF,DewpointF,PressureIn,WindDirection,WindDirectionDegrees,WindSpeedMPH,WindSpeedGustMPH,Humidity,HourlyPrecipIn,Conditions,Clouds,dailyrainin,SoftwareType,DateUTC
2013-09-14 00:01:00,38.9,37.9,30.12,North,355,0.0,0.0,96,0.00,,,0.00,VWS V14.01,2013-09-14 04:01:00,
2013-09-14 00:02:00,38.9,37.9,30.12,North,355,0.0,0.0,96,0.00,,,0.00,VWS V14.01,2013-09-14 04:02:00,
2013-09-14 00:03:00,38.9,37.9,30.12,North,355,0.0,0.0,96,0.00,,,0.00,VWS V14.01,2013-09-14 04:03:00,
2013-09-14 00:06:00,38.9,37.9,30.12,North,355,0.0,0.0,96,0.00,,,0.00,VWS V14.01,2013-09-14 04:06:00,
2013-09-14 00:11:00,38.9,37.9,30.12,North,355,0.0,0.0,96,0.00,,,0.00,VWS V14.01,2013-09-14 04:11:00,
2013-09-14 00:16:00,38.8,37.8,30.11,North,355,0.0,0.0,96,0.00,,,0.00,VWS V14.01,2013-09-14 04:16:00,
2013-09-14 00:21:00,38.7,37.7,30.11,North,355,0.0,0.0,96,0.00,,,0.00,VWS V14.01,2013-09-14 04:21:00,
2013-09-14 00:26:00,38.6,37.6,30.11,North,355,0.0,0.0,96,0.00,,,0.00,VWS V14.01,2013-09-14 04:26:00,
2013-09-14 00:31:00,38.5,37.5,30.11,North,355,0.0,0.0,96,0.00,,,0.00,VWS V14.01,2013-09-14 04:31:00,
2013-09-14 00:36:00,38.4,37.4,30.12,North,355,0.0,0.0,96,0.00,,,0.00,VWS V14.01,2013-09-14 04:36:00,
2013-09-14 00:42:00,38.3,37.3,30.12,North,355,0.0,0.0,96,0.00,,,0.00,VWS V14.01,2013-09-14 04:42:00,
2013-09-14 00:47:00,38.3,37.3,30.11,North,355,0.0,0.0,96,0.00,,,0.00,VWS V14.01,2013-09-14 04:47:00,
2013-09-14 00:52:00,38.1,37.1,30.12,North,355,0.0,0.0,96,0.00,,,0.00,VWS V14.01,2013-09-14 04:52:00,
2013-09-14 00:57:00,38.0,37.0,30.12,North,355,0.0,0.0,96,0.00,,,0.00,VWS V14.01,2013-09-14 04:57:00,
2013-09-14 01:02:00,37.9,36.9,30.11,North,355,0.0,0.0,96,0.00,,,0.00,VWS V14.01,2013-09-14 05:02:00,
2013-09-14 01:07:00,37.8,36.8,30.11,North,355,0.0,0.0,96,0.00,,,0.00,VWS V14.01,2013-09-14 05:07:00,
2013-09-14 01:12:00,37.7,36.7,30.11,North,355,0.0,0.0,96,0.00,,,0.00,VWS V14.01,2013-09-14 05:12:00,
2013-09-14 01:17:00,37.6,36.6,30.11,North,355,0.0,0.0,96,0.00,,,0.00,VWS V14.01,2013-09-14 05:17:00,
2013-09-14 01:22:00,37.6,36.8,30.11,North,355,0.0,0.0,97,0.00,,,0.00,VWS V14.01,2013-09-14 05:22:00,
2013-09-14 01:27:00,37.6,36.8,30.11,North,355,0.0,0.0,97,0.00,,,0.00,VWS V14.01,2013-09-14 05:27:00,
2013-09-14 01:32:00,37.6,36.8,30.11,North,355,0.0,0.0,97,0.00,,,0.00,VWS V14.01,2013-09-14 05:32:00,
2013-09-14 01:37:00,37.4,36.4,30.11,North,355,0.0,0.0,96,0.00,,,0.00,VWS V14.01,2013-09-14 05:37:00,
2013-09-14 01:42:00,37.4,36.4,30.11,North,355,0.0,0.0,96,0.00,,,0.00,VWS V14.01,2013-09-14 05:42:00,
2013-09-14 01:47:00,37.4,36.6,30.11,North,355,0.0,0.0,97,0.00,,,0.00,VWS V14.01,2013-09-14 05:47:00,
2013-09-14 01:52:00,37.4,36.6,30.11,North,355,0.0,0.0,97,0.00,,,0.00,VWS V14.01,2013-09-14 05:52:00,
2013-09-14 01:57:00,37.4,36.6,30.11,North,355,0.0,0.0,97,0.00,,,0.00,VWS V14.01,2013-09-14 05:57:00,
2013-09-14 02:03:00,37.3,36.5,30.11,North,355,0.0,0.0,97,0.00,,,0.00,VWS V14.01,2013-09-14 06:03:00,
2013-09-14 02:08:00,37.3,36.5,30.11,North,355,0.0,0.0,97,0.00,,,0.00,VWS V14.01,2013-09-14 06:08:00,
2013-09-14 02:13:00,37.1,36.3,30.11,North,355,0.0,0.0,97,0.00,,,0.00,VWS V14.01,2013-09-14 06:13:00,
2013-09-14 02:18:00,37.0,36.2,30.11,North,355,0.0,0.0,97,0.00,,,0.00,VWS V14.01,2013-09-14 06:18:00,
2013-09-14 02:23:00,36.9,36.1,30.11,North,355,0.0,0.0,97,0.00,,,0.00,VWS V14.01,2013-09-14 06:23:00,
2013-09-14 02:28:00,36.9,36.1,30.12,North,355,0.0,0.0,97,0.00,,,0.00,VWS V14.01,2013-09-14 06:28:00,
2013-09-14 02:33:00,36.8,36.0,30.12,North,355,0.0,0.0,97,0.00,,,0.00,VWS V14.01,2013-09-14 06:33:00,
2013-09-14 02:38:00,36.8,36.0,30.12,North,355,0.0,0.0,97,0.00,,,0.00,VWS V14.01,2013-09-14 06:38:00,
2013-09-14 02:43:00,36.9,36.1,30.12,North,355,0.0,0.0,97,0.00,,,0.00,VWS V14.01,2013-09-14 06:43:00,
2013-09-14 02:48:00,36.9,36.1,30.12,North,355,0.0,0.0,97,0.00,,,0.00,VWS V14.01,2013-09-14 06:48:00,
2013-09-14 02:53:00,36.9,36.1,30.12,North,355,0.0,0.0,97,0.00,,,0.00,VWS V14.01,2013-09-14 06:53:00,
2013-09-14 02:58:00,36.8,36.0,30.11,North,355,0.0,0.0,97,0.00,,,0.00,VWS V14.01,2013-09-14 06:58:00,
2013-09-14 03:04:00,36.8,36.0,30.12,North,355,0.0,0.0,97,0.00,,,0.00,VWS V14.01,2013-09-14 07:04:00,
2013-09-14 03:09:00,36.8,36.0,30.12,North,355,0.0,0.0,97,0.00,,,0.00,VWS V14.01,2013-09-14 07:09:00,
2013-09-14 03:14:00,36.6,35.8,30.12,North,355,0.0,0.0,97,0.00,,,0.00,VWS V14.01,2013-09-14 07:14:00,
2013-09-14 03:19:00,36.5,35.7,30.12,North,355,0.0,0.0,97,0.00,,,0.00,VWS V14.01,2013-09-14 07:19:00,
2013-09-14 03:24:00,36.6,35.8,30.12,North,355,0.0,0.0,97,0.00,,,0.00,VWS V14.01,2013-09-14 07:24:00,
2013-09-14 03:29:00,36.6,35.8,30.12,North,355,0.0,0.0,97,0.00,,,0.00,VWS V14.01,2013-09-14 07:29:00,
2013-09-14 03:34:00,36.6,35.8,30.12,North,355,0.0,0.0,97,0.00,,,0.00,VWS V14.01,2013-09-14 07:34:00,
2013-09-14 03:39:00,36.6,35.8,30.12,North,355,0.0,0.0,97,0.00,,,0.00,VWS V14.01,2013-09-14 07:39:00,
2013-09-14 03:44:00,36.6,35.8,30.12,North,355,0.0,0.0,97,0.00,,,0.00,VWS V14.01,2013-09-14 07:44:00,
2013-09-14 03:49:00,36.6,35.8,30.12,North,355,0.0,0.0,97,0.00,,,0.00,VWS V14.01,2013-09-14 07:49:00,
2013-09-14 03:54:00,36.6,35.8,30.12,North,355,0.0,0.0,97,0.00,,,0.00,VWS V14.01,2013-09-14 07:54:00,
2013-09-14 03:59:00,36.7,35.9,30.12,North,355,0.0,0.0,97,0.00,,,0.00,VWS V14.01,2013-09-14 07:59:00,
2013-09-14 04:04:00,36.7,35.9,30.12,North,355,0.0,0.0,97,0.00,,,0.00,VWS V14.01,2013-09-14 08:04:00,
2013-09-14 04:09:00,36.7,35.9,30.12,North,355,0.0,0.0,97,0.00,,,0.00,VWS V14.01,2013-09-14 08:09:00,
2013-09-14 04:14:00,36.8,36.0,30.12,North,355,0.0,0.0,97,0.00,,,0.00,VWS V14.01,2013-09-14 08:14:00,
2013-09-14 04:19:00,36.8,36.0,30.12,North,355,0.0,0.0,97,0.00,,,0.00,VWS V14.01,2013-09-14 08:19:00,
2013-09-14 04:24:00,36.9,36.1,30.12,North,355,0.0,0.0,97,0.00,,,0.00,VWS V14.01,2013-09-14 08:24:00,
2013-09-14 04:30:00,37.0,36.2,30.12,North,355,0.0,0.0,97,0.00,,,0.00,VWS V14.01,2013-09-14 08:30:00,
2013-09-14 04:35:00,37.0,36.2,30.12,North,355,0.0,0.0,97,0.00,,,0.00,VWS V14.01,2013-09-14 08:35:00,
2013-09-14 04:40:00,37.1,36.6,30.12,North,355,0.0,0.0,98,0.00,,,0.00,VWS V14.01,2013-09-14 08:40:00,
2013-09-14 04:45:00,37.1,36.6,30.12,North,355,0.0,0.0,98,0.00,,,0.00,VWS V14.01,2013-09-14 08:45:00,
2013-09-14 04:50:00,37.1,36.6,30.12,North,355,0.0,0.0,98,0.00,,,0.00,VWS V14.01,2013-09-14 08:50:00,
2013-09-14 04:55:00,37.1,36.6,30.12,North,355,0.0,0.0,98,0.00,,,0.00,VWS V14.01,2013-09-14 08:55:00,
2013-09-14 05:00:00,37.1,36.6,30.12,North,355,0.0,0.0,98,0.00,,,0.00,VWS V14.01,2013-09-14 09:00:00,
2013-09-14 05:05:00,37.1,36.6,30.12,North,355,0.0,0.0,98,0.00,,,0.00,VWS V14.01,2013-09-14 09:05:00,
2013-09-14 05:10:00,37.0,36.5,30.12,North,355,0.0,0.0,98,0.00,,,0.00,VWS V14.01,2013-09-14 09:10:00,
2013-09-14 05:15:00,37.1,36.6,30.11,North,355,0.0,0.0,98,0.00,,,0.00,VWS V14.01,2013-09-14 09:15:00,
2013-09-14 05:20:00,37.2,36.7,30.11,North,355,0.0,0.0,98,0.00,,,0.00,VWS V14.01,2013-09-14 09:20:00,
2013-09-14 05:26:00,37.3,36.8,30.11,North,355,0.0,0.0,98,0.00,,,0.00,VWS V14.01,2013-09-14 09:26:00,
2013-09-14 05:31:00,37.3,36.8,30.11,North,355,0.0,0.0,98,0.00,,,0.00,VWS V14.01,2013-09-14 09:31:00,
2013-09-14 05:36:00,37.3,36.8,30.12,North,355,0.0,0.0,98,0.00,,,0.00,VWS V14.01,2013-09-14 09:36:00,
2013-09-14 05:41:00,37.3,36.8,30.12,North,355,0.0,0.0,98,0.00,,,0.00,VWS V14.01,2013-09-14 09:41:00,
2013-09-14 05:46:00,37.3,36.8,30.12,North,355,0.0,0.0,98,0.00,,,0.00,VWS V14.01,2013-09-14 09:46:00,
2013-09-14 05:51:00,37.3,36.8,30.12,North,355,0.0,0.0,98,0.00,,,0.00,VWS V14.01,2013-09-14 09:51:00,
2013-09-14 05:56:00,37.3,36.8,30.12,NW,318,0.0,0.0,98,0.00,,,0.00,VWS V14.01,2013-09-14 09:56:00,
2013-09-14 06:01:00,37.4,36.9,30.11,SSW,207,0.0,0.0,98,0.00,,,0.00,VWS V14.01,2013-09-14 10:01:00,
2013-09-14 06:06:00,37.5,37.0,30.11,SSW,207,0.0,0.0,98,0.00,,,0.00,VWS V14.01,2013-09-14 10:06:00,
2013-09-14 06:11:00,37.7,37.2,30.12,SE,128,0.0,0.0,98,0.00,,,0.00,VWS V14.01,2013-09-14 10:11:00,
2013-09-14 06:16:00,37.9,37.4,30.11,South,176,0.0,0.0,98,0.00,,,0.00,VWS V14.01,2013-09-14 10:16:00,
2013-09-14 06:21:00,38.3,37.8,30.11,SSW,209,0.0,0.0,98,0.00,,,0.00,VWS V14.01,2013-09-14 10:21:00,
2013-09-14 06:27:00,38.6,38.1,30.12,SSW,206,0.0,0.0,98,0.00,,,0.00,VWS V14.01,2013-09-14 10:27:00,
2013-09-14 06:33:00,38.6,38.1,30.12,SSW,207,0.0,0.0,98,0.00,,,0.00,VWS V14.01,2013-09-14 10:33:00,
2013-09-14 06:52:00,38.3,37.8,30.12,SSW,200,0.0,0.0,98,0.00,,,0.00,VWS V14.01,2013-09-14 10:52:00,
2013-09-14 07:02:00,38.3,37.8,30.12,SSW,200,0.0,0.0,98,0.00,,,0.00,VWS V14.01,2013-09-14 11:02:00,
2013-09-14 07:08:00,38.3,37.8,30.12,SSW,198,0.0,0.0,98,0.00,,,0.00,VWS V14.01,2013-09-14 11:08:00,
2013-09-14 07:15:00,38.6,38.1,30.12,SSW,198,0.0,0.0,98,0.00,,,0.00,VWS V14.01,2013-09-14 11:15:00,
2013-09-14 07:21:00,38.7,38.2,30.12,SSW,197,0.0,0.0,98,0.00,,,0.00,VWS V14.01,2013-09-14 11:21:00,
2013-09-14 07:47:00,39.7,39.2,30.12,SSW,196,0.0,0.0,98,0.00,,,0.00,VWS V14.01,2013-09-14 11:47:00,
2013-09-14 07:52:00,40.0,39.5,30.12,SSW,196,0.0,0.0,98,0.00,,,0.00,VWS V14.01,2013-09-14 11:52:00,
2013-09-14 07:57:00,40.2,39.7,30.12,South,182,0.0,0.0,98,0.00,,,0.00,VWS V14.01,2013-09-14 11:57:00,
2013-09-14 08:02:00,40.7,40.2,30.12,SSW,198,0.0,0.0,98,0.00,,,0.00,VWS V14.01,2013-09-14 12:02:00,
2013-09-14 08:07:00,41.8,41.3,30.12,SSW,194,0.0,0.0,98,0.01,,,0.01,VWS V14.01,2013-09-14 12:07:00,
2013-09-14 08:12:00,42.8,42.3,30.12,SSW,202,0.0,0.0,98,0.01,,,0.01,VWS V14.01,2013-09-14 12:12:00,
2013-09-14 08:17:00,43.7,43.2,30.12,South,183,0.0,0.0,98,0.01,,,0.01,VWS V14.01,2013-09-14 12:17:00,
2013-09-14 08:22:00,44.5,44.0,30.12,South,181,0.0,0.0,98,0.01,,,0.01,VWS V14.01,2013-09-14 12:22:00,
2013-09-14 08:27:00,45.4,44.9,30.13,South,171,0.0,0.0,98,0.01,,,0.01,VWS V14.01,2013-09-14 12:27:00,
2013-09-14 08:32:00,46.1,45.6,30.12,SSW,207,0.0,0.0,98,0.01,,,0.01,VWS V14.01,2013-09-14 12:32:00,
2013-09-14 08:38:00,46.8,46.3,30.13,SSE,164,0.0,0.0,98,0.01,,,0.01,VWS V14.01,2013-09-14 12:38:00,
2013-09-14 08:44:00,47.6,47.1,30.13,South,173,0.0,0.0,98,0.01,,,0.01,VWS V14.01,2013-09-14 12:44:00,
2013-09-14 08:49:00,48.2,47.7,30.12,South,169,0.0,0.0,98,0.01,,,0.01,VWS V14.01,2013-09-14 12:49:00,
2013-09-14 08:54:00,48.8,48.3,30.13,SSW,194,0.0,0.0,98,0.01,,,0.01,VWS V14.01,2013-09-14 12:54:00,
2013-09-14 09:00:00,49.4,48.9,30.13,SSW,196,0.0,0.0,98,0.01,,,0.01,VWS V14.01,2013-09-14 13:00:00,
2013-09-14 09:05:00,50.1,49.6,30.13,SSE,161,0.0,0.0,98,0.01,,,0.01,VWS V14.01,2013-09-14 13:05:00,
2013-09-14 09:11:00,50.9,50.4,30.12,South,182,0.0,0.0,98,0.00,,,0.01,VWS V14.01,2013-09-14 13:11:00,
2013-09-14 09:16:00,51.7,50.9,30.13,SW,230,0.0,0.0,97,0.00,,,0.01,VWS V14.01,2013-09-14 13:16:00,
2013-09-14 09:23:00,52.6,50.6,30.13,South,179,0.0,0.0,93,0.00,,,0.01,VWS V14.01,2013-09-14 13:23:00,
2013-09-14 09:29:00,53.5,51.5,30.13,SSW,200,0.0,0.0,93,0.00,,,0.01,VWS V14.01,2013-09-14 13:29:00,
2013-09-14 09:35:00,54.5,51.9,30.13,SW,228,0.0,0.0,91,0.00,,,0.01,VWS V14.01,2013-09-14 13:35:00,
2013-09-14 09:40:00,55.3,52.4,30.13,SSW,208,2.0,0.0,90,0.00,,,0.01,VWS V14.01,2013-09-14 13:40:00,
2013-09-14 09:45:00,55.6,52.1,30.13,SSW,196,0.0,0.0,88,0.00,,,0.01,VWS V14.01,2013-09-14 13:45:00,
2013-09-14 09:50:00,55.9,52.1,30.12,SW,234,3.0,0.0,87,0.00,,,0.01,VWS V14.01,2013-09-14 13:50:00,
2013-09-14 09:55:00,56.3,51.9,30.12,SSW,204,3.0,0.0,85,0.00,,,0.01,VWS V14.01,2013-09-14 13:55:00,
2013-09-14 10:00:00,56.4,52.0,30.12,South,184,0.0,0.0,85,0.00,,,0.01,VWS V14.01,2013-09-14 14:00:00,
2013-09-14 10:05:00,56.4,51.3,30.13,SW,217,0.0,0.0,83,0.00,,,0.01,VWS V14.01,2013-09-14 14:05:00,
2013-09-14 10:10:00,56.2,51.4,30.12,SSW,198,0.0,0.0,84,0.00,,,0.01,VWS V14.01,2013-09-14 14:10:00,
2013-09-14 10:15:00,56.0,51.2,30.13,SSW,197,7.0,0.0,84,0.00,,,0.01,VWS V14.01,2013-09-14 14:15:00,
2013-09-14 10:20:00,56.6,51.2,30.13,South,187,0.0,0.0,82,0.00,,,0.01,VWS V14.01,2013-09-14 14:20:00,
2013-09-14 10:25:00,57.5,51.7,30.12,SSW,194,3.0,0.0,81,0.00,,,0.01,VWS V14.01,2013-09-14 14:25:00,
2013-09-14 10:30:00,58.1,50.9,30.12,SSW,211,0.0,0.0,77,0.00,,,0.01,VWS V14.01,2013-09-14 14:30:00,
2013-09-14 10:35:00,58.6,51.1,30.12,WSW,239,3.0,0.0,76,0.00,,,0.01,VWS V14.01,2013-09-14 14:35:00,
2013-09-14 10:40:00,59.1,51.2,30.12,SW,222,4.0,0.0,75,0.00,,,0.01,VWS V14.01,2013-09-14 14:40:00,
2013-09-14 10:46:00,59.5,51.2,30.12,SSW,194,10.0,0.0,74,0.00,,,0.01,VWS V14.01,2013-09-14 14:46:00,
2013-09-14 10:51:00,59.7,50.7,30.12,SW,235,1.0,0.0,72,0.00,,,0.01,VWS V14.01,2013-09-14 14:51:00,
2013-09-14 10:56:00,59.9,50.5,30.12,SW,221,4.0,0.0,71,0.00,,,0.01,VWS V14.01,2013-09-14 14:56:00,
2013-09-14 11:01:00,60.2,50.8,30.12,SSW,193,5.0,0.0,71,0.00,,,0.01,VWS V14.01,2013-09-14 15:01:00,
2013-09-14 11:06:00,60.7,51.2,30.11,SSW,194,8.0,0.0,71,0.00,,,0.01,VWS V14.01,2013-09-14 15:06:00,
2013-09-14 11:11:00,61.3,52.2,30.11,SSW,205,6.0,0.0,72,0.00,,,0.01,VWS V14.01,2013-09-14 15:11:00,
2013-09-14 11:20:00,61.4,51.5,30.11,SSW,201,11.0,0.0,70,0.00,,,0.01,VWS V14.01,2013-09-14 15:20:00,
2013-09-14 11:25:00,61.7,51.8,30.11,SSW,208,6.0,0.0,70,0.00,,,0.01,VWS V14.01,2013-09-14 15:25:00,
2013-09-14 11:30:00,61.7,51.0,30.11,SSW,201,3.0,0.0,68,0.00,,,0.01,VWS V14.01,2013-09-14 15:30:00,
2013-09-14 11:35:00,61.8,51.9,30.10,SSW,211,4.0,0.0,70,0.00,,,0.01,VWS V14.01,2013-09-14 15:35:00,
2013-09-14 11:40:00,61.9,51.6,30.10,SSW,202,3.0,0.0,69,0.00,,,0.01,VWS V14.01,2013-09-14 15:40:00,
2013-09-14 11:45:00,62.1,52.6,30.10,SW,221,0.0,0.0,71,0.00,,,0.01,VWS V14.01,2013-09-14 15:45:00,
2013-09-14 11:50:00,62.3,52.0,30.10,SSW,200,1.0,0.0,69,0.00,,,0.01,VWS V14.01,2013-09-14 15:50:00,
2013-09-14 11:55:00,62.5,52.2,30.10,SW,226,2.0,0.0,69,0.00,,,0.01,VWS V14.01,2013-09-14 15:55:00,
2013-09-14 12:01:00,62.7,52.4,30.10,WSW,237,12.0,0.0,69,0.00,,,0.01,VWS V14.01,2013-09-14 16:01:00,
2013-09-14 12:06:00,62.7,52.0,30.10,SSW,211,2.0,0.0,68,0.00,,,0.01,VWS V14.01,2013-09-14 16:06:00,
2013-09-14 12:11:00,63.0,52.3,30.10,SSW,205,6.0,0.0,68,0.00,,,0.01,VWS V14.01,2013-09-14 16:11:00,
2013-09-14 12:16:00,63.0,52.3,30.09,SW,219,7.0,0.0,68,0.00,,,0.01,VWS V14.01,2013-09-14 16:16:00,
2013-09-14 12:21:00,62.9,52.6,30.09,WSW,240,0.0,0.0,69,0.00,,,0.01,VWS V14.01,2013-09-14 16:21:00,
2013-09-14 12:26:00,62.7,51.6,30.09,SW,219,0.0,0.0,67,0.00,,,0.01,VWS V14.01,2013-09-14 16:26:00,
2013-09-14 12:31:00,62.5,52.2,30.09,WSW,243,0.0,0.0,69,0.00,,,0.01,VWS V14.01,2013-09-14 16:31:00,
2013-09-14 12:36:00,62.9,52.2,30.09,West,265,0.0,0.0,68,0.00,,,0.01,VWS V14.01,2013-09-14 16:36:00,
2013-09-14 12:41:00,63.5,52.8,30.09,SW,228,0.0,0.0,68,0.00,,,0.01,VWS V14.01,2013-09-14 16:41:00,
2013-09-14 12:46:00,63.6,52.5,30.09,SW,221,15.0,0.0,67,0.00,,,0.01,VWS V14.01,2013-09-14 16:46:00,
2013-09-14 12:51:00,63.7,52.5,30.09,SSW,208,0.0,0.0,67,0.00,,,0.01,VWS V14.01,2013-09-14 16:51:00,
2013-09-14 12:56:00,63.7,52.1,30.09,WSW,238,4.0,0.0,66,0.00,,,0.01,VWS V14.01,2013-09-14 16:56:00,
2013-09-14 13:01:00,63.5,52.8,30.08,West,276,14.0,0.0,68,0.00,,,0.01,VWS V14.01,2013-09-14 17:01:00,
2013-09-14 13:06:00,63.4,53.1,30.09,SW,223,4.0,0.0,69,0.00,,,0.01,VWS V14.01,2013-09-14 17:06:00,
2013-09-14 13:11:00,63.6,53.3,30.08,South,169,0.0,0.0,69,0.00,,,0.01,VWS V14.01,2013-09-14 17:11:00,
2013-09-14 13:16:00,64.0,53.6,30.08,South,179,5.0,0.0,69,0.00,,,0.01,VWS V14.01,2013-09-14 17:16:00,
2013-09-14 13:22:00,64.7,53.5,30.08,SW,221,0.0,0.0,67,0.00,,,0.01,VWS V14.01,2013-09-14 17:22:00,
2013-09-14 13:27:00,64.7,53.5,30.08,WSW,240,3.0,0.0,67,0.00,,,0.01,VWS V14.01,2013-09-14 17:27:00,
2013-09-14 13:32:00,64.6,54.2,30.07,SW,225,8.0,0.0,69,0.00,,,0.01,VWS V14.01,2013-09-14 17:32:00,
2013-09-14 13:37:00,65.0,52.5,30.07,SW,230,11.0,0.0,64,0.00,,,0.01,VWS V14.01,2013-09-14 17:37:00,
2013-09-14 13:42:00,64.8,53.6,30.07,SSW,205,4.0,0.0,67,0.00,,,0.01,VWS V14.01,2013-09-14 17:42:00,
2013-09-14 13:47:00,65.1,53.5,30.07,SW,229,6.0,0.0,66,0.00,,,0.01,VWS V14.01,2013-09-14 17:47:00,
2013-09-14 13:52:00,65.2,54.0,30.07,SW,223,0.0,0.0,67,0.00,,,0.01,VWS V14.01,2013-09-14 17:52:00,
2013-09-14 13:57:00,65.6,54.0,30.06,SW,219,1.0,0.0,66,0.00,,,0.01,VWS V14.01,2013-09-14 17:57:00,
2013-09-14 14:02:00,65.6,53.5,30.06,West,266,6.0,0.0,65,0.00,,,0.01,VWS V14.01,2013-09-14 18:02:00,
2013-09-14 14:07:00,65.4,54.2,30.07,WSW,248,5.0,0.0,67,0.00,,,0.01,VWS V14.01,2013-09-14 18:07:00,
2013-09-14 14:12:00,65.4,53.3,30.07,WSW,248,4.0,0.0,65,0.00,,,0.01,VWS V14.01,2013-09-14 18:12:00,
2013-09-14 14:18:00,65.4,53.3,30.06,South,177,12.0,0.0,65,0.00,,,0.01,VWS V14.01,2013-09-14 18:18:00,
2013-09-14 14:23:00,65.3,54.5,30.05,SW,221,9.0,0.0,68,0.00,,,0.01,VWS V14.01,2013-09-14 18:23:00,
2013-09-14 14:28:00,65.6,53.5,30.05,West,271,11.0,0.0,65,0.00,,,0.01,VWS V14.01,2013-09-14 18:28:00,
2013-09-14 14:33:00,65.4,54.2,30.05,WSW,246,4.0,0.0,67,0.00,,,0.01,VWS V14.01,2013-09-14 18:33:00,
2013-09-14 14:38:00,65.4,54.2,30.04,WSW,240,3.0,0.0,67,0.00,,,0.01,VWS V14.01,2013-09-14 18:38:00,
2013-09-14 14:43:00,65.6,54.0,30.04,WSW,237,0.0,0.0,66,0.00,,,0.01,VWS V14.01,2013-09-14 18:43:00,
2013-09-14 14:48:00,65.8,53.7,30.04,SSE,167,10.0,0.0,65,0.00,,,0.01,VWS V14.01,2013-09-14 18:48:00,
2013-09-14 14:53:00,66.0,53.1,30.04,SW,221,9.0,0.0,63,0.00,,,0.01,VWS V14.01,2013-09-14 18:53:00,
2013-09-14 14:58:00,65.7,53.2,30.04,SW,215,13.0,0.0,64,0.00,,,0.01,VWS V14.01,2013-09-14 18:58:00,
2013-09-14 15:03:00,65.6,53.5,30.04,South,180,1.0,0.0,65,0.00,,,0.01,VWS V14.01,2013-09-14 19:03:00,
2013-09-14 15:09:00,66.1,53.6,30.04,SW,233,0.0,0.0,64,0.00,,,0.01,VWS V14.01,2013-09-14 19:09:00,
2013-09-14 15:14:00,66.4,53.9,30.04,SW,216,8.0,0.0,64,0.00,,,0.01,VWS V14.01,2013-09-14 19:14:00,
2013-09-14 15:19:00,66.3,53.3,30.04,SW,224,0.0,0.0,63,0.00,,,0.01,VWS V14.01,2013-09-14 19:19:00,
2013-09-14 15:24:00,66.3,53.3,30.03,West,261,0.0,0.0,63,0.00,,,0.01,VWS V14.01,2013-09-14 19:24:00,
2013-09-14 15:29:00,66.6,54.5,30.03,SW,221,1.0,0.0,65,0.00,,,0.01,VWS V14.01,2013-09-14 19:29:00,
2013-09-14 15:34:00,66.9,53.9,30.03,South,181,0.0,0.0,63,0.00,,,0.01,VWS V14.01,2013-09-14 19:34:00,
2013-09-14 15:39:00,66.6,52.3,30.03,South,175,7.0,0.0,60,0.00,,,0.01,VWS V14.01,2013-09-14 19:39:00,
2013-09-14 15:44:00,66.5,53.1,30.02,South,190,10.0,0.0,62,0.00,,,0.01,VWS V14.01,2013-09-14 19:44:00,
2013-09-14 15:49:00,66.6,52.8,30.02,WSW,249,4.0,0.0,61,0.00,,,0.01,VWS V14.01,2013-09-14 19:49:00,
2013-09-14 15:54:00,66.6,53.2,30.02,WNW,291,7.0,0.0,62,0.00,,,0.01,VWS V14.01,2013-09-14 19:54:00,
2013-09-14 15:59:00,66.6,53.2,30.02,South,190,0.0,0.0,62,0.00,,,0.01,VWS V14.01,2013-09-14 19:59:00,
2013-09-14 16:05:00,66.5,52.7,30.02,WSW,254,9.0,0.0,61,0.00,,,0.01,VWS V14.01,2013-09-14 20:05:00,
2013-09-14 16:10:00,66.3,52.9,30.02,SSW,197,6.0,0.0,62,0.00,,,0.01,VWS V14.01,2013-09-14 20:10:00,
2013-09-14 16:15:00,66.1,53.2,30.02,SW,231,10.0,0.0,63,0.00,,,0.01,VWS V14.01,2013-09-14 20:15:00,
2013-09-14 16:20:00,65.9,53.4,30.02,SSW,207,8.0,0.0,64,0.00,,,0.01,VWS V14.01,2013-09-14 20:20:00,
2013-09-14 16:26:00,66.1,53.2,30.02,SW,225,8.0,0.0,63,0.00,,,0.01,VWS V14.01,2013-09-14 20:26:00,
2013-09-14 16:31:00,66.3,53.8,30.02,SW,234,0.0,0.0,64,0.00,,,0.01,VWS V14.01,2013-09-14 20:31:00,
2013-09-14 16:36:00,66.3,53.3,30.02,SW,223,0.0,0.0,63,0.00,,,0.01,VWS V14.01,2013-09-14 20:36:00,
2013-09-14 16:41:00,66.3,53.8,30.01,West,261,8.0,0.0,64,0.00,,,0.01,VWS V14.01,2013-09-14 20:41:00,
2013-09-14 16:46:00,66.7,53.7,30.01,WSW,239,4.0,0.0,63,0.00,,,0.01,VWS V14.01,2013-09-14 20:46:00,
2013-09-14 16:51:00,66.7,53.3,30.01,SW,228,4.0,0.0,62,0.00,,,0.01,VWS V14.01,2013-09-14 20:51:00,
2013-09-14 16:56:00,66.4,53.0,30.01,West,265,0.0,0.0,62,0.00,,,0.01,VWS V14.01,2013-09-14 20:56:00,
2013-09-14 17:01:00,66.0,53.1,30.02,SSW,203,6.0,0.0,63,0.00,,,0.01,VWS V14.01,2013-09-14 21:01:00,
2013-09-14 17:06:00,65.8,52.9,30.02,WSW,257,3.0,0.0,63,0.00,,,0.01,VWS V14.01,2013-09-14 21:06:00,
2013-09-14 17:11:00,65.8,52.9,30.02,SW,219,0.0,0.0,63,0.00,,,0.01,VWS V14.01,2013-09-14 21:11:00,
2013-09-14 17:16:00,65.3,52.4,30.02,South,185,6.0,0.0,63,0.00,,,0.01,VWS V14.01,2013-09-14 21:16:00,
2013-09-14 17:21:00,64.9,52.5,30.02,West,272,0.0,0.0,64,0.00,,,0.01,VWS V14.01,2013-09-14 21:21:00,
2013-09-14 17:26:00,64.9,52.5,30.02,SW,221,0.0,0.0,64,0.00,,,0.01,VWS V14.01,2013-09-14 21:26:00,
2013-09-14 17:31:00,64.7,52.3,30.02,SSW,198,0.0,0.0,64,0.00,,,0.01,VWS V14.01,2013-09-14 21:31:00,
2013-09-14 17:36:00,64.1,51.7,30.02,SW,218,7.0,0.0,64,0.00,,,0.01,VWS V14.01,2013-09-14 21:36:00,
2013-09-14 17:41:00,63.5,52.0,30.01,SW,231,0.0,0.0,66,0.00,,,0.01,VWS V14.01,2013-09-14 21:41:00,
2013-09-14 17:46:00,63.0,51.9,30.01,SW,234,0.0,0.0,67,0.00,,,0.01,VWS V14.01,2013-09-14 21:46:00,
2013-09-14 17:51:00,62.8,52.1,30.01,WSW,247,4.0,0.0,68,0.00,,,0.01,VWS V14.01,2013-09-14 21:51:00,
2013-09-14 17:56:00,62.5,52.2,30.01,SSW,200,0.0,0.0,69,0.00,,,0.01,VWS V14.01,2013-09-14 21:56:00,
2013-09-14 18:01:00,62.2,51.9,30.01,SW,236,0.0,0.0,69,0.00,,,0.01,VWS V14.01,2013-09-14 22:01:00,
2013-09-14 18:06:00,62.1,52.2,30.01,WSW,242,0.0,0.0,70,0.00,,,0.01,VWS V14.01,2013-09-14 22:06:00,
2013-09-14 18:11:00,62.1,52.6,30.01,SSW,212,6.0,0.0,71,0.00,,,0.01,VWS V14.01,2013-09-14 22:11:00,
2013-09-14 18:16:00,61.9,52.4,30.01,SSW,203,0.0,0.0,71,0.00,,,0.01,VWS V14.01,2013-09-14 22:16:00,
2013-09-14 18:21:00,61.8,52.7,30.01,SSW,195,0.0,0.0,72,0.00,,,0.01,VWS V14.01,2013-09-14 22:21:00,
2013-09-14 18:27:00,61.7,53.0,30.01,SSW,213,0.0,0.0,73,0.00,,,0.01,VWS V14.01,2013-09-14 22:27:00,
2013-09-14 18:32:00,61.6,52.5,30.01,SSW,202,0.0,0.0,72,0.00,,,0.01,VWS V14.01,2013-09-14 22:32:00,
2013-09-14 18:37:00,61.7,53.0,30.00,SW,220,0.0,0.0,73,0.00,,,0.01,VWS V14.01,2013-09-14 22:37:00,
2013-09-14 18:42:00,61.6,52.9,30.00,SW,231,0.0,0.0,73,0.00,,,0.01,VWS V14.01,2013-09-14 22:42:00,
2013-09-14 18:47:00,61.5,52.4,30.00,SW,234,0.0,0.0,72,0.00,,,0.01,VWS V14.01,2013-09-14 22:47:00,
2013-09-14 18:49:00,61.4,52.7,30.00,SW,224,0.0,0.0,73,0.00,,,0.01,VWS V14.01,2013-09-14 22:49:00,
2013-09-14 18:54:00,61.3,52.6,30.00,SW,219,0.0,0.0,73,0.00,,,0.01,VWS V14.01,2013-09-14 22:54:00,
2013-09-14 18:59:00,61.1,52.0,30.00,SW,215,0.0,0.0,72,0.00,,,0.01,VWS V14.01,2013-09-14 22:59:00,
2013-09-14 19:04:00,60.9,52.2,30.00,SSW,206,0.0,0.0,73,0.00,,,0.01,VWS V14.01,2013-09-14 23:04:00,
2013-09-14 19:09:00,60.7,50.9,30.00,South,190,0.0,0.0,70,0.00,,,0.01,VWS V14.01,2013-09-14 23:09:00,
2013-09-14 19:14:00,60.5,49.9,30.00,SSW,192,4.0,0.0,68,0.00,,,0.01,VWS V14.01,2013-09-14 23:14:00,
2013-09-14 19:19:00,60.3,50.1,30.00,SW,219,0.0,0.0,69,0.00,,,0.01,VWS V14.01,2013-09-14 23:19:00,
2013-09-14 19:24:00,60.1,50.3,30.00,SSW,202,0.0,0.0,70,0.00,,,0.01,VWS V14.01,2013-09-14 23:24:00,
2013-09-14 19:29:00,59.8,49.2,30.00,SSW,209,0.0,0.0,68,0.00,,,0.01,VWS V14.01,2013-09-14 23:29:00,
2013-09-14 19:34:00,59.6,49.0,30.00,SW,227,0.0,0.0,68,0.00,,,0.01,VWS V14.01,2013-09-14 23:34:00,
2013-09-14 19:39:00,59.3,48.8,30.00,SSW,211,0.0,0.0,68,0.00,,,0.01,VWS V14.01,2013-09-14 23:39:00,
2013-09-14 19:45:00,59.1,48.2,30.00,SSW,213,0.0,0.0,67,0.00,,,0.01,VWS V14.01,2013-09-14 23:45:00,
2013-09-14 19:50:00,58.8,48.3,30.00,South,191,0.0,0.0,68,0.00,,,0.01,VWS V14.01,2013-09-14 23:50:00,
2013-09-14 19:55:00,58.7,48.6,29.99,SSW,192,0.0,0.0,69,0.00,,,0.01,VWS V14.01,2013-09-14 23:55:00,
2013-09-14 20:00:00,58.4,48.7,29.99,South,181,0.0,0.0,70,0.00,,,0.01,VWS V14.01,2013-09-15 00:00:00,
2013-09-14 20:05:00,58.1,48.8,29.99,SW,219,0.0,0.0,71,0.00,,,0.01,VWS V14.01,2013-09-15 00:05:00,
2013-09-14 20:10:00,57.8,48.1,29.99,SSW,194,0.0,0.0,70,0.00,,,0.01,VWS V14.01,2013-09-15 00:10:00,
2013-09-14 20:15:00,57.7,48.0,29.99,SW,217,0.0,0.0,70,0.00,,,0.01,VWS V14.01,2013-09-15 00:15:00,
2013-09-14 20:20:00,57.6,49.0,29.99,SW,218,2.0,0.0,73,0.00,,,0.01,VWS V14.01,2013-09-15 00:20:00,
2013-09-14 20:25:00,57.5,48.6,29.99,SSW,206,0.0,0.0,72,0.00,,,0.01,VWS V14.01,2013-09-15 00:25:00,
2013-09-14 20:30:00,57.3,48.4,29.99,SW,214,0.0,0.0,72,0.00,,,0.01,VWS V14.01,2013-09-15 00:30:00,
2013-09-14 20:35:00,57.1,48.9,30.00,SSW,211,0.0,0.0,74,0.00,,,0.01,VWS V14.01,2013-09-15 00:35:00,
2013-09-14 20:40:00,56.8,48.6,30.00,SW,218,0.0,0.0,74,0.00,,,0.01,VWS V14.01,2013-09-15 00:40:00,
2013-09-14 20:45:00,56.6,47.7,30.00,SSW,200,0.0,0.0,72,0.00,,,0.01,VWS V14.01,2013-09-15 00:45:00,
2013-09-14 20:50:00,56.6,48.4,29.99,SW,225,0.0,0.0,74,0.00,,,0.01,VWS V14.01,2013-09-15 00:50:00,
2013-09-14 20:55:00,56.5,48.0,30.00,SSW,209,0.0,0.0,73,0.00,,,0.01,VWS V14.01,2013-09-15 00:55:00,
2013-09-14 21:00:00,56.6,48.4,29.99,SW,218,0.0,0.0,74,0.00,,,0.01,VWS V14.01,2013-09-15 01:00:00,
2013-09-14 21:05:00,56.6,48.4,30.00,SSW,206,0.0,0.0,74,0.00,,,0.01,VWS V14.01,2013-09-15 01:05:00,
2013-09-14 21:11:00,56.7,48.9,29.99,SSW,207,0.0,0.0,75,0.00,,,0.01,VWS V14.01,2013-09-15 01:11:00,
2013-09-14 21:16:00,56.7,48.9,30.00,South,188,6.0,0.0,75,0.00,,,0.01,VWS V14.01,2013-09-15 01:16:00,
2013-09-14 21:21:00,56.8,49.3,29.99,SSW,207,0.0,0.0,76,0.00,,,0.01,VWS V14.01,2013-09-15 01:21:00,
2013-09-14 21:26:00,56.8,49.7,29.99,SSW,200,0.0,0.0,77,0.00,,,0.01,VWS V14.01,2013-09-15 01:26:00,
2013-09-14 21:31:00,56.9,49.4,29.99,SSW,211,0.0,0.0,76,0.00,,,0.01,VWS V14.01,2013-09-15 01:31:00,
2013-09-14 21:36:00,57.1,49.3,29.99,SW,223,0.0,0.0,75,0.00,,,0.01,VWS V14.01,2013-09-15 01:36:00,
2013-09-14 21:41:00,57.3,49.5,29.99,SW,221,0.0,0.0,75,0.00,,,0.01,VWS V14.01,2013-09-15 01:41:00,
2013-09-14 21:46:00,57.5,49.7,29.99,SW,215,4.0,0.0,75,0.00,,,0.01,VWS V14.01,2013-09-15 01:46:00,
2013-09-14 21:51:00,57.8,49.9,29.99,SW,218,4.0,0.0,75,0.00,,,0.01,VWS V14.01,2013-09-15 01:51:00,
2013-09-14 21:56:00,58.2,50.3,29.99,SW,221,8.0,0.0,75,0.00,,,0.01,VWS V14.01,2013-09-15 01:56:00,
2013-09-14 22:01:00,58.4,50.5,29.99,SW,228,0.0,0.0,75,0.00,,,0.01,VWS V14.01,2013-09-15 02:01:00,
2013-09-14 22:06:00,58.4,50.5,29.99,South,190,0.0,0.0,75,0.00,,,0.01,VWS V14.01,2013-09-15 02:06:00,
2013-09-14 22:11:00,58.4,50.5,30.00,SW,215,0.0,0.0,75,0.00,,,0.01,VWS V14.01,2013-09-15 02:11:00,
2013-09-14 22:16:00,58.5,50.6,30.00,SW,225,0.0,0.0,75,0.00,,,0.01,VWS V14.01,2013-09-15 02:16:00,
2013-09-14 22:21:00,58.6,50.3,29.99,SSW,208,0.0,0.0,74,0.00,,,0.01,VWS V14.01,2013-09-15 02:21:00,
2013-09-14 22:27:00,58.7,50.5,29.99,SSW,207,0.0,0.0,74,0.00,,,0.01,VWS V14.01,2013-09-15 02:27:00,
2013-09-14 22:32:00,58.8,50.9,29.98,WSW,248,0.0,0.0,75,0.00,,,0.01,VWS V14.01,2013-09-15 02:32:00,
2013-09-14 22:37:00,58.8,50.9,29.98,SW,232,0.0,0.0,75,0.00,,,0.01,VWS V14.01,2013-09-15 02:37:00,
2013-09-14 22:42:00,58.8,51.3,29.98,South,191,0.0,0.0,76,0.00,,,0.01,VWS V14.01,2013-09-15 02:42:00,
2013-09-14 22:47:00,58.8,51.3,29.98,SSW,202,0.0,0.0,76,0.00,,,0.01,VWS V14.01,2013-09-15 02:47:00,
2013-09-14 22:52:00,58.7,51.5,29.98,South,190,6.0,0.0,77,0.00,,,0.01,VWS V14.01,2013-09-15 02:52:00,
2013-09-14 22:57:00,58.7,51.9,29.98,SW,236,4.0,0.0,78,0.00,,,0.01,VWS V14.01,2013-09-15 02:57:00,
2013-09-14 23:02:00,58.7,51.9,29.98,SW,223,3.0,0.0,78,0.00,,,0.01,VWS V14.01,2013-09-15 03:02:00,
2013-09-14 23:07:00,58.9,52.1,29.98,SSW,213,0.0,0.0,78,0.00,,,0.01,VWS V14.01,2013-09-15 03:07:00,
2013-09-14 23:12:00,58.9,52.1,29.98,SSW,208,8.0,0.0,78,0.00,,,0.01,VWS V14.01,2013-09-15 03:12:00,
2013-09-14 23:17:00,58.9,52.4,29.98,SW,215,5.0,0.0,79,0.00,,,0.01,VWS V14.01,2013-09-15 03:17:00,
2013-09-14 23:22:00,58.9,52.4,29.98,SSW,206,5.0,0.0,79,0.00,,,0.01,VWS V14.01,2013-09-15 03:22:00,
2013-09-14 23:27:00,59.0,52.5,29.98,SW,219,8.0,0.0,79,0.00,,,0.01,VWS V14.01,2013-09-15 03:27:00,
2013-09-14 23:32:00,59.0,52.5,29.98,SSW,206,0.0,0.0,79,0.00,,,0.01,VWS V14.01,2013-09-15 03:32:00,
2013-09-14 23:37:00,59.0,52.5,29.98,South,179,5.0,0.0,79,0.00,,,0.01,VWS V14.01,2013-09-15 03:37:00,
2013-09-14 23:42:00,59.1,52.9,29.98,SW,216,4.0,0.0,80,0.00,,,0.01,VWS V14.01,2013-09-15 03:42:00,
2013-09-14 23:47:00,59.1,52.9,29.98,SSW,196,5.0,0.0,80,0.00,,,0.01,VWS V14.01,2013-09-15 03:47:00,
2013-09-14 23:53:00,59.1,52.9,29.98,SSW,193,3.0,0.0,80,0.00,,,0.01,VWS V14.01,2013-09-15 03:53:00,
2013-09-14 23:58:00,59.2,53.0,29.98,SSW,205,4.0,0.0,80,0.00,,,0.01,VWS V14.01,2013-09-15 03:58:00,